createdAt,value
2022-09-16T00:00:40.067Z,99.99
2022-09-16T00:01:40.259Z,99.99
2022-09-16T00:02:40.376Z,99.99
2022-09-16T00:03:40.002Z,99.99
2022-09-16T00:04:39.993Z,99.99
2022-09-16T00:05:39.987Z,99.99
2022-09-16T00:06:40.000Z,99.99
2022-09-16T00:07:39.969Z,99.99
2022-09-16T00:08:39.959Z,99.99
2022-09-16T00:09:39.953Z,99.99
2022-09-16T00:10:39.942Z,99.99
2022-09-16T00:11:39.935Z,99.99
2022-09-16T00:12:39.926Z,99.99
2022-09-16T00:13:40.122Z,99.99
2022-09-16T00:14:39.909Z,99.99
2022-09-16T00:15:39.903Z,99.99
2022-09-16T00:16:39.970Z,99.99
2022-09-16T00:17:39.887Z,99.99
2022-09-16T00:18:39.875Z,99.99
2022-09-16T00:19:39.872Z,99.99
2022-09-16T00:20:39.858Z,99.99
2022-09-16T00:21:39.852Z,99.99
2022-09-16T00:22:39.864Z,99.99
2022-09-16T00:23:39.835Z,99.99
2022-09-16T00:24:39.827Z,99.99
2022-09-16T00:25:39.819Z,99.99
2022-09-16T00:26:39.807Z,99.99
2022-09-16T00:27:39.802Z,99.99
2022-09-16T00:28:39.791Z,99.99
2022-09-16T00:29:39.787Z,99.99
2022-09-16T00:30:39.774Z,99.99
2022-09-16T00:31:39.816Z,99.99
2022-09-16T00:32:39.809Z,99.99
2022-09-16T00:33:39.753Z,99.99
2022-09-16T00:34:39.741Z,99.99
2022-09-16T00:35:39.735Z,99.99
2022-09-16T00:36:39.927Z,99.99
2022-09-16T00:37:39.718Z,99.99
2022-09-16T00:38:39.733Z,99.99
2022-09-16T00:39:39.904Z,99.99
2022-09-16T00:40:39.692Z,99.99
2022-09-16T00:41:39.686Z,99.99
2022-09-16T00:42:39.674Z,99.99
2022-09-16T00:43:39.668Z,99.99
2022-09-16T00:44:39.658Z,99.99
2022-09-16T00:45:39.652Z,99.99
2022-09-16T00:46:39.702Z,99.99
2022-09-16T00:47:39.634Z,99.99
2022-09-16T00:48:39.625Z,99.99
2022-09-16T00:49:39.619Z,99.99
2022-09-16T00:50:39.607Z,99.99
2022-09-16T00:51:39.601Z,99.99
2022-09-16T00:52:39.592Z,99.99
2022-09-16T00:53:43.010Z,99.99
2022-09-16T00:54:39.599Z,99.99
2022-09-16T00:55:39.569Z,99.99
2022-09-16T00:56:39.961Z,99.99
2022-09-16T00:57:39.552Z,99.99
2022-09-16T00:58:39.546Z,99.99
2022-09-16T00:59:39.536Z,99.99
2022-09-16T01:00:39.562Z,99.99
2022-09-16T01:01:39.609Z,99.99
2022-09-16T01:02:39.508Z,99.99
2022-09-16T01:03:39.501Z,99.99
2022-09-16T01:04:39.490Z,99.99
2022-09-16T01:05:39.487Z,99.99
2022-09-16T01:06:39.475Z,99.99
2022-09-16T01:07:39.468Z,99.99
2022-09-16T01:08:39.458Z,99.99
2022-09-16T01:09:39.453Z,99.99
2022-09-16T01:10:39.463Z,99.99
2022-09-16T01:11:39.435Z,99.99
2022-09-16T01:12:39.427Z,99.99
2022-09-16T01:13:39.418Z,99.99
2022-09-16T01:14:39.408Z,99.99
2022-09-16T01:15:39.405Z,99.99
2022-09-16T01:16:39.593Z,99.99
2022-09-16T01:17:39.386Z,99.99
2022-09-16T01:18:39.388Z,99.99
2022-09-16T01:19:39.369Z,99.99
2022-09-16T01:20:39.361Z,99.99
2022-09-16T01:21:39.353Z,99.99
2022-09-16T01:22:39.341Z,99.99
2022-09-16T01:23:39.336Z,99.99
2022-09-16T01:24:39.375Z,99.99
2022-09-16T01:25:39.318Z,99.99
2022-09-16T01:26:39.334Z,99.99
2022-09-16T01:27:39.303Z,99.99
2022-09-16T01:28:39.291Z,99.99
2022-09-16T01:29:39.287Z,99.99
2022-09-16T01:30:39.275Z,99.99
2022-09-16T01:31:39.357Z,99.99
2022-09-16T01:32:39.260Z,99.99
2022-09-16T01:33:39.253Z,99.99
2022-09-16T01:34:39.242Z,99.99
2022-09-16T01:35:39.237Z,99.99
2022-09-16T01:36:39.225Z,99.99
2022-09-16T01:37:39.218Z,99.99
2022-09-16T01:38:39.211Z,99.99
2022-09-16T01:39:39.199Z,99.99
2022-09-16T01:40:39.196Z,99.99
2022-09-16T01:41:39.233Z,99.99
2022-09-16T01:42:39.215Z,99.99
2022-09-16T01:43:39.171Z,99.99
2022-09-16T01:44:39.163Z,99.99
2022-09-16T01:45:39.149Z,99.99
2022-09-16T01:46:39.205Z,99.99
2022-09-16T01:47:39.333Z,99.99
2022-09-16T01:48:39.128Z,99.99
2022-09-16T01:49:39.117Z,99.99
2022-09-16T01:50:39.110Z,99.99
2022-09-16T01:52:39.091Z,99.99
2022-09-16T01:53:39.084Z,99.99
2022-09-16T01:54:39.073Z,99.99
2022-09-16T01:55:39.067Z,99.99
2022-09-16T01:56:39.057Z,99.99
2022-09-16T01:57:39.051Z,99.99
2022-09-16T01:58:39.056Z,99.99
2022-09-16T01:59:39.033Z,99.99
2022-09-16T02:00:39.023Z,99.99
2022-09-16T02:01:39.132Z,99.99
2022-09-16T02:02:39.054Z,99.99
2022-09-16T02:03:39.000Z,99.99
2022-09-16T02:04:38.989Z,99.99
2022-09-16T02:05:38.983Z,99.99
2022-09-16T02:06:38.972Z,99.99
2022-09-16T02:07:38.964Z,99.99
2022-09-16T02:08:38.957Z,99.99
2022-09-16T02:09:38.949Z,99.99
2022-09-16T02:10:38.940Z,99.99
2022-09-16T02:11:38.933Z,99.99
2022-09-16T02:12:38.921Z,99.99
2022-09-16T02:13:38.915Z,99.99
2022-09-16T02:14:38.922Z,99.99
2022-09-16T02:15:38.930Z,99.99
2022-09-16T02:16:38.888Z,99.99
2022-09-16T02:18:38.871Z,99.99
2022-09-16T02:19:38.861Z,99.99
2022-09-16T02:20:38.856Z,99.99
2022-09-16T02:21:41.298Z,99.99
2022-09-16T02:22:38.839Z,99.99
2022-09-16T02:23:38.830Z,99.99
2022-09-16T02:24:38.823Z,99.99
2022-09-16T02:25:38.812Z,99.99
2022-09-16T02:26:38.804Z,99.99
2022-09-16T02:27:38.846Z,99.99
2022-09-16T02:28:38.791Z,99.99
2022-09-16T02:29:38.779Z,99.99
2022-09-16T02:30:38.792Z,99.99
2022-09-16T02:31:38.821Z,99.99
2022-09-16T02:32:38.754Z,99.99
2022-09-16T02:33:38.745Z,99.99
2022-09-16T02:34:38.736Z,99.99
2022-09-16T02:35:38.725Z,99.99
2022-09-16T02:36:38.720Z,99.99
2022-09-16T02:37:38.715Z,99.99
2022-09-16T02:38:38.703Z,99.99
2022-09-16T02:39:38.692Z,99.99
2022-09-16T02:40:38.686Z,99.99
2022-09-16T02:41:38.677Z,99.99
2022-09-16T02:42:38.666Z,99.99
2022-09-16T02:43:38.658Z,99.99
2022-09-16T02:44:38.651Z,99.99
2022-09-16T02:45:38.642Z,99.99
2022-09-16T02:46:38.751Z,99.99
2022-09-16T02:47:38.625Z,99.99
2022-09-16T02:48:38.618Z,99.99
2022-09-16T02:49:38.608Z,99.99
2022-09-16T02:50:38.600Z,99.99
2022-09-16T02:51:38.592Z,99.99
2022-09-16T02:52:38.584Z,99.99
2022-09-16T02:53:38.577Z,99.99
2022-09-16T02:54:38.566Z,99.99
2022-09-16T02:55:38.563Z,99.99
2022-09-16T02:56:38.549Z,99.99
2022-09-16T02:57:38.540Z,99.99
2022-09-16T02:58:38.534Z,99.99
2022-09-16T02:59:38.523Z,99.99
2022-09-16T03:00:38.521Z,99.99
2022-09-16T03:01:38.552Z,99.99
2022-09-16T03:02:38.556Z,99.99
2022-09-16T03:03:38.490Z,99.99
2022-09-16T03:04:38.491Z,99.99
2022-09-16T03:05:38.472Z,99.99
2022-09-16T03:06:38.466Z,99.99
2022-09-16T03:07:38.454Z,99.99
2022-09-16T03:08:38.452Z,99.99
2022-09-16T03:09:38.438Z,99.99
2022-09-16T03:10:38.431Z,99.99
2022-09-16T03:11:38.419Z,99.99
2022-09-16T03:12:38.418Z,99.99
2022-09-16T03:13:38.405Z,99.99
2022-09-16T03:14:38.397Z,99.99
2022-09-16T03:15:38.449Z,99.99
2022-09-16T03:16:41.549Z,99.99
2022-09-16T03:17:38.371Z,99.99
2022-09-16T03:18:38.384Z,99.99
2022-09-16T03:19:38.352Z,99.99
2022-09-16T03:20:38.347Z,99.99
2022-09-16T03:21:38.339Z,99.99
2022-09-16T03:22:38.330Z,99.99
2022-09-16T03:23:38.318Z,99.99
2022-09-16T03:24:38.311Z,99.99
2022-09-16T03:25:38.302Z,99.99
2022-09-16T03:26:38.295Z,99.99
2022-09-16T03:27:38.284Z,99.99
2022-09-16T03:28:38.278Z,99.99
2022-09-16T03:29:40.593Z,99.99
2022-09-16T03:30:38.260Z,99.99
2022-09-16T03:31:38.272Z,99.99
2022-09-16T03:32:38.242Z,99.99
2022-09-16T03:33:38.233Z,99.99
2022-09-16T03:34:38.244Z,99.99
2022-09-16T03:35:38.215Z,99.99
2022-09-16T03:36:38.213Z,99.99
2022-09-16T03:37:38.198Z,99.99
2022-09-16T03:38:38.190Z,99.99
2022-09-16T03:39:38.180Z,99.99
2022-09-16T03:40:38.174Z,99.99
2022-09-16T03:41:38.162Z,99.99
2022-09-16T03:42:38.157Z,99.99
2022-09-16T03:43:38.147Z,99.99
2022-09-16T03:44:38.138Z,99.99
2022-09-16T03:45:38.130Z,99.99
2022-09-16T03:46:38.228Z,99.99
2022-09-16T03:47:38.111Z,99.99
2022-09-16T03:48:38.106Z,99.99
2022-09-16T03:49:38.096Z,99.99
2022-09-16T03:50:38.105Z,99.99
2022-09-16T03:51:38.076Z,99.99
2022-09-16T03:52:38.070Z,99.99
2022-09-16T03:53:38.059Z,99.99
2022-09-16T03:54:38.052Z,99.99
2022-09-16T03:55:38.041Z,99.99
2022-09-16T03:57:38.026Z,99.99
2022-09-16T03:58:38.014Z,99.99
2022-09-16T03:59:38.008Z,99.99
2022-09-16T04:01:38.047Z,99.99
2022-09-16T04:02:38.066Z,99.99
2022-09-16T04:03:37.972Z,99.99
2022-09-16T04:04:37.966Z,99.99
2022-09-16T04:05:37.954Z,99.99
2022-09-16T04:06:37.969Z,99.99
2022-09-16T04:07:37.936Z,99.99
2022-09-16T04:08:37.931Z,99.99
2022-09-16T04:09:37.920Z,99.99
2022-09-16T04:10:37.913Z,99.99
2022-09-16T04:11:37.903Z,99.99
2022-09-16T04:12:37.895Z,99.99
2022-09-16T04:13:37.886Z,99.99
2022-09-16T04:14:37.878Z,99.99
2022-09-16T04:15:37.917Z,99.99
2022-09-16T04:16:37.862Z,99.99
2022-09-16T04:17:37.853Z,99.99
2022-09-16T04:18:37.850Z,99.99
2022-09-16T04:19:37.837Z,99.99
2022-09-16T04:20:37.825Z,99.99
2022-09-16T04:21:37.814Z,99.99
2022-09-16T04:22:37.828Z,99.99
2022-09-16T04:23:37.797Z,99.99
2022-09-16T04:24:37.792Z,99.99
2022-09-16T04:25:37.781Z,99.99
2022-09-16T04:26:37.775Z,99.99
2022-09-16T04:27:37.762Z,99.99
2022-09-16T04:28:37.758Z,99.99
2022-09-16T04:29:37.753Z,99.99
2022-09-16T04:30:37.806Z,99.99
2022-09-16T04:31:37.728Z,99.99
2022-09-16T04:32:37.822Z,99.99
2022-09-16T04:33:37.710Z,99.99
2022-09-16T04:34:37.702Z,99.99
2022-09-16T04:35:37.691Z,99.99
2022-09-16T04:36:37.685Z,99.99
2022-09-16T04:37:37.725Z,99.99
2022-09-16T04:38:37.688Z,99.99
2022-09-16T04:39:37.658Z,99.99
2022-09-16T04:40:37.732Z,99.99
2022-09-16T04:41:37.640Z,99.99
2022-09-16T04:42:37.632Z,99.99
2022-09-16T04:43:37.623Z,99.99
2022-09-16T04:44:37.615Z,99.99
2022-09-16T04:45:37.605Z,99.99
2022-09-16T04:46:37.662Z,99.99
2022-09-16T04:47:37.586Z,99.99
2022-09-16T04:48:37.578Z,99.99
2022-09-16T04:49:37.570Z,99.99
2022-09-16T04:50:37.563Z,99.99
2022-09-16T04:51:37.551Z,99.99
2022-09-16T04:52:37.545Z,99.99
2022-09-16T04:53:37.534Z,99.99
2022-09-16T04:54:37.544Z,99.99
2022-09-16T04:55:37.516Z,99.99
2022-09-16T04:56:37.518Z,99.99
2022-09-16T04:57:37.497Z,99.99
2022-09-16T04:58:37.490Z,99.99
2022-09-16T04:59:37.480Z,99.99
2022-09-16T05:00:37.475Z,99.99
2022-09-16T05:01:37.548Z,99.99
2022-09-16T05:02:37.662Z,99.99
2022-09-16T05:03:37.518Z,99.99
2022-09-16T05:04:37.440Z,99.99
2022-09-16T05:05:37.430Z,99.99
2022-09-16T05:06:37.422Z,99.99
2022-09-16T05:07:37.411Z,99.99
2022-09-16T05:08:37.408Z,99.99
2022-09-16T05:09:37.393Z,99.99
2022-09-16T05:10:37.403Z,99.99
2022-09-16T05:11:37.375Z,99.99
2022-09-16T05:12:37.368Z,99.99
2022-09-16T05:13:37.358Z,99.99
2022-09-16T05:14:37.554Z,99.99
2022-09-16T05:15:37.398Z,99.99
2022-09-16T05:16:37.334Z,99.99
2022-09-16T05:17:50.876Z,99.99
2022-09-16T05:18:37.316Z,99.99
2022-09-16T05:19:37.307Z,99.99
2022-09-16T05:20:37.299Z,99.99
2022-09-16T05:21:37.290Z,99.99
2022-09-16T05:22:37.281Z,99.99
2022-09-16T05:23:37.270Z,99.99
2022-09-16T05:24:37.264Z,99.99
2022-09-16T05:25:37.252Z,99.99
2022-09-16T05:26:37.357Z,99.99
2022-09-16T05:27:37.236Z,99.99
2022-09-16T05:28:37.229Z,99.99
2022-09-16T05:29:37.218Z,99.99
2022-09-16T05:30:37.265Z,99.99
2022-09-16T05:31:37.200Z,99.99
2022-09-16T05:32:37.194Z,99.99
2022-09-16T05:33:37.185Z,99.99
2022-09-16T05:34:37.177Z,99.99
2022-09-16T05:35:37.165Z,99.99
2022-09-16T05:36:37.159Z,99.99
2022-09-16T05:37:37.149Z,99.99
2022-09-16T05:38:37.141Z,99.99
2022-09-16T05:39:37.133Z,99.99
2022-09-16T05:40:37.124Z,99.99
2022-09-16T05:41:37.117Z,99.99
2022-09-16T05:42:37.224Z,99.99
2022-09-16T05:43:37.097Z,99.99
2022-09-16T05:44:37.090Z,99.99
2022-09-16T05:45:37.080Z,99.99
2022-09-16T05:46:37.071Z,99.99
2022-09-16T05:47:37.062Z,99.99
2022-09-16T05:48:37.055Z,99.99
2022-09-16T05:49:37.047Z,99.99
2022-09-16T05:50:37.038Z,99.99
2022-09-16T05:51:37.027Z,99.99
2022-09-16T05:52:37.021Z,99.99
2022-09-16T05:53:37.010Z,99.99
2022-09-16T05:54:37.003Z,99.99
2022-09-16T05:55:36.992Z,99.99
2022-09-16T05:56:36.987Z,99.99
2022-09-16T05:57:36.977Z,99.99
2022-09-16T05:58:37.082Z,99.99
2022-09-16T05:59:36.960Z,99.99
2022-09-16T06:00:36.949Z,99.99
2022-09-16T06:01:37.007Z,99.99
2022-09-16T06:02:37.127Z,99.99
2022-09-16T06:03:36.927Z,99.99
2022-09-16T06:04:36.916Z,99.99
2022-09-16T06:05:36.909Z,99.99
2022-09-16T06:06:36.897Z,99.99
2022-09-16T06:07:36.892Z,99.99
2022-09-16T06:08:36.881Z,99.99
2022-09-16T06:09:36.873Z,99.99
2022-09-16T06:10:36.864Z,99.99
2022-09-16T06:11:36.858Z,99.99
2022-09-16T06:12:36.848Z,99.99
2022-09-16T06:13:36.840Z,99.99
2022-09-16T06:14:36.964Z,99.99
2022-09-16T06:15:36.874Z,99.99
2022-09-16T06:16:36.813Z,99.99
2022-09-16T06:17:36.806Z,99.99
2022-09-16T06:18:36.797Z,99.99
2022-09-16T06:19:36.791Z,99.99
2022-09-16T06:20:36.779Z,99.99
2022-09-16T06:21:36.773Z,99.99
2022-09-16T06:22:36.762Z,99.99
2022-09-16T06:23:36.755Z,99.99
2022-09-16T06:24:36.746Z,99.99
2022-09-16T06:25:36.740Z,99.99
2022-09-16T06:26:36.727Z,99.99
2022-09-16T06:27:36.724Z,99.99
2022-09-16T06:28:36.713Z,99.99
2022-09-16T06:29:36.707Z,99.99
2022-09-16T06:30:36.877Z,99.99
2022-09-16T06:31:36.693Z,99.99
2022-09-16T06:32:36.679Z,99.99
2022-09-16T06:33:36.676Z,99.99
2022-09-16T06:34:36.662Z,99.99
2022-09-16T06:35:36.655Z,99.99
2022-09-16T06:36:38.543Z,99.99
2022-09-16T06:37:36.639Z,99.99
2022-09-16T06:38:36.628Z,99.99
2022-09-16T06:39:36.623Z,99.99
2022-09-16T06:40:36.682Z,99.99
2022-09-16T06:41:36.607Z,99.99
2022-09-16T06:42:36.595Z,99.99
2022-09-16T06:43:36.589Z,99.99
2022-09-16T06:44:36.579Z,99.99
2022-09-16T06:45:36.573Z,99.99
2022-09-16T06:46:36.687Z,99.99
2022-09-16T06:47:36.557Z,99.99
2022-09-16T06:48:36.547Z,99.99
2022-09-16T06:49:36.539Z,99.99
2022-09-16T06:50:36.527Z,99.99
2022-09-16T06:51:36.572Z,99.99
2022-09-16T06:52:36.515Z,99.99
2022-09-16T06:53:36.507Z,99.99
2022-09-16T06:54:36.496Z,99.99
2022-09-16T06:55:36.489Z,99.99
2022-09-16T06:56:36.480Z,99.99
2022-09-16T06:57:36.473Z,99.99
2022-09-16T06:58:36.462Z,99.99
2022-09-16T06:59:36.455Z,99.99
2022-09-16T07:00:36.445Z,99.99
2022-09-16T07:02:36.636Z,99.99
2022-09-16T07:03:36.421Z,99.99
2022-09-16T07:04:36.429Z,99.99
2022-09-16T07:05:36.406Z,99.99
2022-09-16T07:07:08.601Z,99.99
2022-09-16T07:07:36.395Z,99.99
2022-09-16T07:08:36.384Z,99.99
2022-09-16T07:09:36.374Z,99.99
2022-09-16T07:10:36.367Z,99.99
2022-09-16T07:11:36.358Z,99.99
2022-09-16T07:12:36.353Z,99.99
2022-09-16T07:13:36.340Z,99.99
2022-09-16T07:14:36.334Z,99.99
2022-09-16T07:15:50.900Z,99.99
2022-09-16T07:16:36.401Z,99.99
2022-09-16T07:17:36.309Z,99.99
2022-09-16T07:18:36.423Z,99.99
2022-09-16T07:19:36.292Z,99.99
2022-09-16T07:20:36.285Z,99.99
2022-09-16T07:21:36.279Z,99.99
2022-09-16T07:22:36.270Z,99.99
2022-09-16T07:23:36.260Z,99.99
2022-09-16T07:24:36.254Z,99.99
2022-09-16T07:25:36.245Z,99.99
2022-09-16T07:26:36.237Z,99.99
2022-09-16T07:27:36.228Z,99.99
2022-09-16T07:28:36.222Z,99.99
2022-09-16T07:29:36.212Z,99.99
2022-09-16T07:30:36.222Z,99.99
2022-09-16T07:31:36.217Z,99.99
2022-09-16T07:32:36.190Z,99.99
2022-09-16T07:33:36.180Z,99.99
2022-09-16T07:34:36.289Z,99.99
2022-09-16T07:35:36.165Z,99.99
2022-09-16T07:36:36.162Z,99.99
2022-09-16T07:37:39.361Z,99.99
2022-09-16T07:38:36.147Z,99.99
2022-09-16T07:39:36.146Z,99.99
2022-09-16T07:40:36.176Z,99.99
2022-09-16T07:41:36.122Z,99.99
2022-09-16T07:42:36.117Z,99.99
2022-09-16T07:43:36.104Z,99.99
2022-09-16T07:44:36.303Z,99.99
2022-09-16T07:45:36.149Z,99.99
2022-09-16T07:46:36.084Z,99.99
2022-09-16T07:47:36.076Z,99.99
2022-09-16T07:48:36.071Z,99.99
2022-09-16T07:49:36.264Z,99.99
2022-09-16T07:50:36.171Z,99.99
2022-09-16T07:51:36.050Z,99.99
2022-09-16T07:52:36.126Z,99.99
2022-09-16T07:53:36.032Z,99.99
2022-09-16T07:54:36.028Z,99.99
2022-09-16T07:55:36.017Z,99.99
2022-09-16T07:56:36.010Z,99.99
2022-09-16T07:57:36.003Z,99.99
2022-09-16T07:58:35.996Z,99.99
2022-09-16T07:59:35.987Z,99.99
2022-09-16T08:00:35.983Z,99.99
2022-09-16T08:01:39.003Z,99.99
2022-09-16T08:02:36.055Z,99.99
2022-09-16T08:03:35.958Z,99.99
2022-09-16T08:04:35.982Z,99.99
2022-09-16T08:05:35.945Z,99.99
2022-09-16T08:06:36.055Z,99.99
2022-09-16T08:07:35.928Z,99.99
2022-09-16T08:08:35.928Z,99.99
2022-09-16T08:09:39.844Z,99.99
2022-09-16T08:10:35.922Z,99.99
2022-09-16T08:11:35.899Z,99.99
2022-09-16T08:12:35.894Z,99.99
2022-09-16T08:13:35.927Z,99.99
2022-09-16T08:14:35.924Z,99.99
2022-09-16T08:15:35.871Z,99.99
2022-09-16T08:16:35.887Z,99.99
2022-09-16T08:17:35.857Z,99.99
2022-09-16T08:18:35.851Z,99.99
2022-09-16T08:19:35.843Z,99.99
2022-09-16T08:20:35.836Z,99.99
2022-09-16T08:21:35.827Z,99.99
2022-09-16T08:22:35.935Z,99.99
2022-09-16T08:23:35.812Z,99.99
2022-09-16T08:24:35.896Z,99.99
2022-09-16T08:25:35.799Z,99.99
2022-09-16T08:26:35.791Z,99.99
2022-09-16T08:27:35.782Z,99.99
2022-09-16T08:28:51.191Z,99.99
2022-09-16T08:29:35.769Z,99.99
2022-09-16T08:30:35.763Z,99.99
2022-09-16T08:31:35.818Z,99.99
2022-09-16T08:32:35.749Z,99.99
2022-09-16T08:33:35.740Z,99.99
2022-09-16T08:34:35.782Z,99.99
2022-09-16T08:35:35.733Z,99.99
2022-09-16T08:36:35.720Z,99.99
2022-09-16T08:37:35.711Z,99.99
2022-09-16T08:38:35.823Z,99.99
2022-09-16T08:39:35.697Z,99.99
2022-09-16T08:40:35.710Z,99.99
2022-09-16T08:41:35.684Z,99.99
2022-09-16T08:42:35.679Z,99.99
2022-09-16T08:43:35.673Z,99.99
2022-09-16T08:44:35.674Z,99.99
2022-09-16T08:45:35.720Z,99.99
2022-09-16T08:46:35.659Z,99.99
2022-09-16T08:47:35.645Z,99.99
2022-09-16T08:48:35.637Z,99.99
2022-09-16T08:49:35.629Z,99.99
2022-09-16T08:50:35.627Z,99.99
2022-09-16T08:51:35.616Z,99.99
2022-09-16T08:52:35.610Z,99.99
2022-09-16T08:53:35.601Z,99.99
2022-09-16T08:54:35.724Z,99.99
2022-09-16T08:55:35.586Z,99.99
2022-09-16T08:56:35.582Z,99.99
2022-09-16T08:58:35.566Z,99.99
2022-09-16T08:59:35.561Z,99.99
2022-09-16T09:00:35.640Z,99.99
2022-09-16T09:01:35.921Z,99.99
2022-09-16T09:02:36.111Z,99.99
2022-09-16T09:03:35.533Z,99.99
2022-09-16T09:05:35.529Z,99.99
2022-09-16T09:06:35.612Z,99.99
2022-09-16T09:07:35.505Z,99.99
2022-09-16T09:08:35.496Z,99.99
2022-09-16T09:09:35.487Z,99.99
2022-09-16T09:10:35.614Z,99.99
2022-09-16T09:11:35.768Z,99.99
2022-09-16T09:12:36.495Z,99.99
2022-09-16T09:13:35.462Z,99.99
2022-09-16T09:14:35.453Z,99.99
2022-09-16T09:15:35.444Z,99.99
2022-09-16T09:16:35.489Z,99.99
2022-09-16T09:17:37.033Z,99.99
2022-09-16T09:18:35.424Z,99.99
2022-09-16T09:19:35.416Z,99.99
2022-09-16T09:20:35.408Z,99.99
2022-09-16T09:21:35.400Z,99.99
2022-09-16T09:22:35.397Z,99.99
2022-09-16T09:23:35.388Z,99.99
2022-09-16T09:24:35.379Z,99.99
2022-09-16T09:25:35.372Z,99.99
2022-09-16T09:26:35.498Z,99.99
2022-09-16T09:27:35.356Z,99.99
2022-09-16T09:28:35.351Z,99.99
2022-09-16T09:29:35.342Z,99.99
2022-09-16T09:30:35.538Z,99.99
2022-09-16T09:31:35.459Z,99.99
2022-09-16T09:32:48.505Z,99.99
2022-09-16T09:33:46.009Z,99.99
2022-09-16T09:34:37.120Z,99.99
2022-09-16T09:35:35.296Z,99.99
2022-09-16T09:36:35.292Z,99.99
2022-09-16T09:37:35.283Z,99.99
2022-09-16T09:38:35.277Z,99.99
2022-09-16T09:39:35.267Z,99.99
2022-09-16T09:40:35.294Z,99.99
2022-09-16T09:41:35.255Z,99.99
2022-09-16T09:42:35.374Z,99.99
2022-09-16T09:43:35.257Z,99.99
2022-09-16T09:44:35.235Z,99.99
2022-09-16T09:45:35.223Z,99.99
2022-09-16T09:46:35.267Z,99.99
2022-09-16T09:47:35.209Z,99.99
2022-09-16T09:48:35.202Z,99.99
2022-09-16T09:49:35.193Z,99.99
2022-09-16T09:50:35.185Z,99.99
2022-09-16T09:51:35.177Z,99.99
2022-09-16T09:52:35.172Z,99.99
2022-09-16T09:53:35.163Z,99.99
2022-09-16T09:54:35.159Z,99.99
2022-09-16T09:55:35.147Z,99.99
2022-09-16T09:56:35.142Z,99.99
2022-09-16T09:57:35.132Z,99.99
2022-09-16T09:58:35.300Z,99.99
2022-09-16T09:59:35.118Z,99.99
2022-09-16T10:00:35.153Z,99.99
2022-09-16T10:01:35.104Z,99.99
2022-09-16T10:02:35.099Z,99.99
2022-09-16T10:03:35.091Z,99.99
2022-09-16T10:04:35.183Z,99.99
2022-09-16T10:05:35.075Z,99.99
2022-09-16T10:06:35.068Z,99.99
2022-09-16T10:07:35.059Z,99.99
2022-09-16T10:08:35.054Z,99.99
2022-09-16T10:09:35.054Z,99.99
2022-09-16T10:10:35.039Z,99.99
2022-09-16T10:11:35.030Z,99.99
2022-09-16T10:12:35.025Z,99.99
2022-09-16T10:13:35.018Z,99.99
2022-09-16T10:14:35.140Z,99.99
2022-09-16T10:15:35.001Z,99.99
2022-09-16T10:16:35.002Z,99.99
2022-09-16T10:17:34.989Z,99.99
2022-09-16T10:18:34.983Z,99.99
2022-09-16T10:19:34.976Z,99.99
2022-09-16T10:20:35.014Z,99.99
2022-09-16T10:21:34.979Z,99.99
2022-09-16T10:22:34.949Z,99.99
2022-09-16T10:23:34.944Z,99.99
2022-09-16T10:24:34.934Z,99.99
2022-09-16T10:25:34.929Z,99.99
2022-09-16T10:26:34.920Z,99.99
2022-09-16T10:27:34.914Z,99.99
2022-09-16T10:28:34.906Z,99.99
2022-09-16T10:29:34.900Z,99.99
2022-09-16T10:30:35.022Z,99.99
2022-09-16T10:31:34.974Z,99.99
2022-09-16T10:32:34.878Z,99.99
2022-09-16T10:33:34.877Z,99.99
2022-09-16T10:34:34.861Z,99.99
2022-09-16T10:35:34.856Z,99.99
2022-09-16T10:36:34.846Z,99.99
2022-09-16T10:37:34.842Z,99.99
2022-09-16T10:38:34.831Z,99.99
2022-09-16T10:39:34.826Z,99.99
2022-09-16T10:40:34.915Z,99.99
2022-09-16T10:41:34.811Z,99.99
2022-09-16T10:42:34.802Z,99.99
2022-09-16T10:43:34.797Z,99.99
2022-09-16T10:44:34.787Z,99.99
2022-09-16T10:45:34.783Z,99.99
2022-09-16T10:46:35.000Z,99.99
2022-09-16T10:47:34.828Z,99.99
2022-09-16T10:48:34.759Z,99.99
2022-09-16T10:49:34.754Z,99.99
2022-09-16T10:50:34.743Z,99.99
2022-09-16T10:51:34.737Z,99.99
2022-09-16T10:52:34.729Z,99.93
2022-09-16T10:53:39.130Z,99.99
2022-09-16T10:54:34.714Z,99.26
2022-09-16T10:55:34.710Z,98.14
2022-09-16T10:56:34.703Z,97.47
2022-09-16T10:57:34.695Z,96.56
2022-09-16T10:58:34.686Z,95.89
2022-09-16T10:59:34.683Z,94.92
2022-09-16T11:00:34.707Z,95.16
2022-09-16T11:01:36.334Z,95.07
2022-09-16T11:02:34.795Z,93.33
2022-09-16T11:03:34.655Z,93.91
2022-09-16T11:04:34.646Z,93.57
2022-09-16T11:05:34.641Z,92.65
2022-09-16T11:06:34.633Z,89.28
2022-09-16T11:07:34.630Z,88.85
2022-09-16T11:08:34.622Z,88.46
2022-09-16T11:09:34.618Z,89.53
2022-09-16T11:10:34.608Z,88.22
2022-09-16T11:11:34.657Z,88.60
2022-09-16T11:12:34.597Z,88.70
2022-09-16T11:13:34.592Z,88.99
2022-09-16T11:14:34.584Z,88.89
2022-09-16T11:15:34.581Z,88.79
2022-09-16T11:17:34.567Z,89.18
2022-09-16T11:18:34.697Z,89.09
2022-09-16T11:19:34.555Z,88.99
2022-09-16T11:20:34.553Z,86.19
2022-09-16T11:21:34.546Z,87.06
2022-09-16T11:22:34.542Z,87.70
2022-09-16T11:23:34.533Z,87.54
2022-09-16T11:24:34.529Z,87.93
2022-09-16T11:25:34.522Z,87.79
2022-09-16T11:26:34.518Z,89.04
2022-09-16T11:27:34.511Z,87.98
2022-09-16T11:28:34.507Z,87.98
2022-09-16T11:29:34.500Z,87.50
2022-09-16T11:30:34.496Z,87.98
2022-09-16T11:31:34.509Z,87.88
2022-09-16T11:32:34.599Z,87.79
2022-09-16T11:33:34.478Z,88.04
2022-09-16T11:34:34.600Z,87.12
2022-09-16T11:35:34.466Z,86.69
2022-09-16T11:36:34.462Z,88.32
2022-09-16T11:37:34.457Z,88.13
2022-09-16T11:38:34.448Z,87.84
2022-09-16T11:39:34.444Z,88.61
2022-09-16T11:40:34.525Z,88.71
2022-09-16T11:41:34.432Z,87.74
2022-09-16T11:42:34.426Z,88.13
2022-09-16T11:43:34.421Z,87.07
2022-09-16T11:44:34.431Z,87.46
2022-09-16T11:45:34.438Z,88.08
2022-09-16T11:46:34.484Z,88.27
2022-09-16T11:47:38.446Z,87.40
2022-09-16T11:48:34.393Z,87.60
2022-09-16T11:49:34.384Z,86.44
2022-09-16T11:50:34.507Z,87.02
2022-09-16T11:51:34.376Z,85.67
2022-09-16T11:52:34.488Z,86.58
2022-09-16T11:53:37.765Z,86.29
2022-09-16T11:54:34.358Z,84.27
2022-09-16T11:55:34.350Z,85.42
2022-09-16T11:56:34.346Z,85.81
2022-09-16T11:57:34.340Z,85.03
2022-09-16T11:58:34.336Z,84.94
2022-09-16T11:59:34.329Z,85.42
2022-09-16T12:00:34.326Z,85.33
2022-09-16T12:01:34.415Z,85.03
2022-09-16T12:02:34.492Z,85.81
2022-09-16T12:03:34.308Z,85.13
2022-09-16T12:04:36.325Z,85.03
2022-09-16T12:05:34.309Z,82.82
2022-09-16T12:06:34.419Z,82.14
2022-09-16T12:07:34.313Z,82.92
2022-09-16T12:08:34.283Z,82.53
2022-09-16T12:09:34.274Z,83.36
2022-09-16T12:10:34.283Z,83.74
2022-09-16T12:11:34.276Z,84.61
2022-09-16T12:12:34.263Z,83.64
2022-09-16T12:13:34.355Z,85.47
2022-09-16T12:14:34.249Z,84.66
2022-09-16T12:16:34.256Z,86.49
2022-09-16T12:17:34.232Z,86.40
2022-09-16T12:18:34.226Z,85.82
2022-09-16T12:19:34.220Z,85.24
2022-09-16T12:20:34.216Z,86.49
2022-09-16T12:21:34.212Z,86.49
2022-09-16T12:22:34.333Z,87.26
2022-09-16T12:23:34.196Z,87.94
2022-09-16T12:24:34.192Z,86.49
2022-09-16T12:25:34.187Z,85.72
2022-09-16T12:26:34.181Z,85.91
2022-09-16T12:27:34.176Z,86.49
2022-09-16T12:28:34.175Z,85.63
2022-09-16T12:29:34.162Z,87.30
2022-09-16T12:30:34.158Z,85.67
2022-09-16T12:31:34.175Z,85.86
2022-09-16T12:32:34.148Z,84.75
2022-09-16T12:33:34.142Z,84.21
2022-09-16T12:34:34.135Z,84.98
2022-09-16T12:35:34.149Z,84.98
2022-09-16T12:36:34.125Z,84.21
2022-09-16T12:37:34.116Z,83.92
2022-09-16T12:38:34.240Z,83.96
2022-09-16T12:39:34.105Z,83.77
2022-09-16T12:40:34.142Z,83.87
2022-09-16T12:41:34.096Z,84.44
2022-09-16T12:42:34.092Z,83.34
2022-09-16T12:43:34.090Z,83.92
2022-09-16T12:44:34.919Z,84.27
2022-09-16T12:45:34.076Z,85.03
2022-09-16T12:46:34.091Z,85.03
2022-09-16T12:47:34.064Z,84.89
2022-09-16T12:48:34.062Z,83.53
2022-09-16T12:49:34.055Z,83.92
2022-09-16T12:50:34.051Z,83.78
2022-09-16T12:51:34.044Z,84.65
2022-09-16T12:52:34.041Z,83.88
2022-09-16T12:53:34.033Z,83.88
2022-09-16T12:54:45.786Z,83.78
2022-09-16T12:55:34.041Z,84.11
2022-09-16T12:56:34.022Z,83.92
2022-09-16T12:57:34.015Z,83.59
2022-09-16T12:58:34.008Z,83.59
2022-09-16T12:59:34.003Z,83.40
2022-09-16T13:00:34.000Z,82.14
2022-09-16T13:01:34.172Z,82.68